createdAt,value
2023-03-31T00:02:15.286Z,87.22
2023-03-31T00:07:22.231Z,87.53
2023-03-31T00:12:24.897Z,87.83
2023-03-31T00:17:27.531Z,87.97
2023-03-31T00:22:30.105Z,88.19
2023-03-31T00:27:32.901Z,88.24
2023-03-31T00:32:35.533Z,88.35
2023-03-31T00:37:38.153Z,87.77
2023-03-31T00:42:42.012Z,88.10
2023-03-31T00:47:51.581Z,88.33
2023-03-31T00:53:01.088Z,88.84
2023-03-31T00:58:07.120Z,89.26
2023-03-31T01:03:11.279Z,88.90
2023-03-31T01:08:17.338Z,89.85
2023-03-31T01:13:21.527Z,89.37
2023-03-31T01:18:24.929Z,90.03
2023-03-31T01:23:36.633Z,90.08
2023-03-31T01:28:48.221Z,90.11
2023-03-31T01:34:15.421Z,91.19
2023-03-31T01:40:09.178Z,90.87
2023-03-31T01:45:20.564Z,91.04
2023-03-31T01:50:59.801Z,91.80
2023-03-31T01:56:21.515Z,91.96
2023-03-31T02:01:38.093Z,91.89
2023-03-31T02:06:46.734Z,90.83
2023-03-31T02:11:52.052Z,91.44
2023-03-31T02:16:58.723Z,91.64
2023-03-31T02:22:04.519Z,92.23
2023-03-31T02:27:10.830Z,91.93
2023-03-31T02:32:25.453Z,92.04
2023-03-31T02:37:30.638Z,92.67
2023-03-31T02:42:33.709Z,92.58
2023-03-31T02:47:36.411Z,92.57
2023-03-31T02:53:11.277Z,92.29
2023-03-31T02:58:46.220Z,92.01
2023-03-31T03:04:06.639Z,92.00
2023-03-31T03:09:30.058Z,92.09
2023-03-31T03:14:48.289Z,92.40
2023-03-31T03:19:55.279Z,92.40
2023-03-31T03:24:57.810Z,92.25
2023-03-31T03:30:02.890Z,92.03
2023-03-31T03:35:06.839Z,91.60
2023-03-31T03:40:10.585Z,91.83
2023-03-31T03:45:13.264Z,91.95
2023-03-31T03:50:16.571Z,92.36
2023-03-31T03:55:19.774Z,92.22
2023-03-31T04:00:22.314Z,91.96
2023-03-31T04:05:25.177Z,92.46
2023-03-31T04:10:27.848Z,92.35
2023-03-31T04:15:30.549Z,92.33
2023-03-31T04:20:34.848Z,92.18
2023-03-31T04:25:38.726Z,91.87
2023-03-31T04:30:41.367Z,91.88
2023-03-31T04:35:50.382Z,91.13
2023-03-31T04:40:54.286Z,90.93
2023-03-31T04:45:56.937Z,90.96
2023-03-31T04:50:59.648Z,90.51
2023-03-31T04:56:02.940Z,90.50
2023-03-31T05:01:08.840Z,89.98
2023-03-31T05:06:11.676Z,90.54
2023-03-31T05:11:14.430Z,90.36
2023-03-31T05:16:17.573Z,89.82
2023-03-31T05:21:21.716Z,89.58
2023-03-31T05:26:25.540Z,88.06
2023-03-31T05:31:28.299Z,86.78
2023-03-31T05:36:32.395Z,87.02
2023-03-31T05:41:35.800Z,86.86
2023-03-31T05:46:38.529Z,88.51
2023-03-31T05:51:41.480Z,88.04
2023-03-31T05:56:44.062Z,87.43
2023-03-31T06:01:47.459Z,86.33
2023-03-31T06:06:50.665Z,85.26
2023-03-31T06:11:53.296Z,85.30
2023-03-31T06:16:57.733Z,84.35
2023-03-31T06:22:00.927Z,83.80
2023-03-31T06:27:04.128Z,82.91
2023-03-31T06:32:06.918Z,81.56
2023-03-31T06:37:09.618Z,79.96
2023-03-31T06:42:12.215Z,79.42
2023-03-31T06:47:16.681Z,79.49
2023-03-31T06:52:19.344Z,79.56
2023-03-31T06:57:22.034Z,79.36
2023-03-31T07:02:24.701Z,79.81
2023-03-31T07:07:27.318Z,79.61
2023-03-31T07:12:34.008Z,79.53
2023-03-31T07:17:38.015Z,79.37
2023-03-31T07:22:41.860Z,78.86
2023-03-31T07:27:44.999Z,78.94
2023-03-31T07:32:49.777Z,78.39
2023-03-31T07:37:52.803Z,77.10
2023-03-31T07:42:56.086Z,76.24
2023-03-31T07:47:58.969Z,74.88
2023-03-31T07:53:01.663Z,74.76
2023-03-31T07:58:04.335Z,75.02
2023-03-31T08:03:07.305Z,74.25
2023-03-31T08:08:10.012Z,73.34
2023-03-31T08:13:15.754Z,72.72
2023-03-31T08:18:18.615Z,72.87
2023-03-31T08:23:21.260Z,72.11
2023-03-31T08:28:24.055Z,72.23
2023-03-31T08:33:26.655Z,71.14
2023-03-31T08:38:29.495Z,71.27
2023-03-31T08:43:44.727Z,70.12
2023-03-31T08:48:59.601Z,70.85
2023-03-31T08:54:13.726Z,69.87
2023-03-31T08:59:32.558Z,69.89
2023-03-31T09:04:53.562Z,69.24
2023-03-31T09:10:17.262Z,69.16
2023-03-31T09:15:28.877Z,69.48
2023-03-31T09:20:39.395Z,69.64
2023-03-31T09:25:44.919Z,69.62
2023-03-31T09:30:51.983Z,69.27
2023-03-31T09:35:54.663Z,68.59
2023-03-31T09:40:59.096Z,69.21
2023-03-31T09:46:09.789Z,68.97
2023-03-31T09:51:20.910Z,67.53
2023-03-31T09:56:50.700Z,67.48
2023-03-31T10:01:59.083Z,67.42
2023-03-31T10:07:04.641Z,67.41
2023-03-31T10:12:09.712Z,66.55
2023-03-31T10:17:18.703Z,66.61
2023-03-31T10:22:21.343Z,66.75
2023-03-31T10:27:28.464Z,67.29
2023-03-31T10:32:34.115Z,67.10
2023-03-31T10:37:37.764Z,67.53
2023-03-31T10:42:40.610Z,68.32
2023-03-31T10:47:48.928Z,68.72
2023-03-31T10:52:51.494Z,68.01
2023-03-31T10:57:58.333Z,68.20
2023-03-31T11:03:25.733Z,68.38
2023-03-31T11:08:34.219Z,68.23
2023-03-31T11:14:18.181Z,67.87
2023-03-31T11:19:20.801Z,68.71
2023-03-31T11:24:44.978Z,68.09
2023-03-31T11:30:07.607Z,68.22
2023-03-31T11:35:56.832Z,68.08
2023-03-31T11:41:08.520Z,68.19
2023-03-31T11:46:42.109Z,67.84
2023-03-31T11:52:02.450Z,69.25
2023-03-31T11:57:22.139Z,70.67
2023-03-31T12:03:00.116Z,70.50
2023-03-31T12:08:19.448Z,71.21
2023-03-31T12:13:34.855Z,71.19
2023-03-31T12:18:45.101Z,72.11
2023-03-31T12:23:47.919Z,72.33
2023-03-31T12:28:57.393Z,72.08
2023-03-31T12:34:09.392Z,72.85
2023-03-31T12:39:27.510Z,72.60
2023-03-31T12:44:39.664Z,71.96
2023-03-31T12:50:09.364Z,73.47
2023-03-31T12:55:36.225Z,74.42
2023-03-31T13:01:08.521Z,74.70
2023-03-31T13:06:28.548Z,74.97
2023-03-31T13:11:31.424Z,75.21
2023-03-31T13:16:36.243Z,75.23
2023-03-31T13:21:59.177Z,75.19
2023-03-31T13:27:35.834Z,76.08
2023-03-31T13:32:40.214Z,76.82
2023-03-31T13:38:15.155Z,76.28
2023-03-31T13:44:10.528Z,76.49
2023-03-31T13:49:47.608Z,80.20
2023-03-31T13:55:13.213Z,82.37
2023-03-31T14:00:43.021Z,84.21
2023-03-31T14:05:53.954Z,84.54
2023-03-31T14:11:25.714Z,86.66
2023-03-31T14:16:31.739Z,88.73
2023-03-31T14:21:49.089Z,90.04
2023-03-31T14:27:05.195Z,92.61
2023-03-31T14:32:24.203Z,94.94
2023-03-31T14:37:28.276Z,94.86
2023-03-31T14:42:39.800Z,93.28
2023-03-31T14:47:42.829Z,95.05
2023-03-31T14:52:52.714Z,95.92
2023-03-31T14:57:58.734Z,96.46
2023-03-31T15:03:04.189Z,94.84
2023-03-31T15:08:18.343Z,94.74
2023-03-31T15:13:30.971Z,95.77
2023-03-31T15:18:33.751Z,97.51
2023-03-31T15:23:37.218Z,97.23
2023-03-31T15:28:50.025Z,97.13
2023-03-31T15:33:54.108Z,96.66
2023-03-31T15:38:59.088Z,96.22
2023-03-31T15:44:47.033Z,96.34
2023-03-31T15:50:04.565Z,97.20
2023-03-31T15:55:31.774Z,97.47
2023-03-31T16:00:34.503Z,97.66
2023-03-31T16:11:17.628Z,98.66
2023-03-31T16:13:34.789Z,98.69
2023-03-31T16:16:24.230Z,99.74
2023-03-31T16:21:33.680Z,100.00
2023-03-31T16:26:37.379Z,100.00
2023-03-31T16:31:41.100Z,99.92
2023-03-31T16:36:43.864Z,100.00
2023-03-31T16:41:46.416Z,100.00
2023-03-31T16:46:49.065Z,100.00
2023-03-31T16:51:52.769Z,100.00
2023-03-31T16:56:55.696Z,99.93
2023-03-31T17:01:58.325Z,100.00
2023-03-31T17:07:00.917Z,99.78
2023-03-31T17:12:03.694Z,99.85
2023-03-31T17:17:06.321Z,98.98
2023-03-31T17:22:08.949Z,99.92
2023-03-31T17:27:12.337Z,100.00
2023-03-31T17:32:16.625Z,100.00
2023-03-31T17:37:20.104Z,100.00
2023-03-31T17:42:22.861Z,100.00
2023-03-31T17:47:25.589Z,99.66
2023-03-31T17:52:28.591Z,99.10
2023-03-31T17:57:32.652Z,99.73
2023-03-31T18:02:39.340Z,100.00
2023-03-31T18:07:42.107Z,100.00
2023-03-31T18:12:44.780Z,100.00
2023-03-31T18:17:47.905Z,100.00
2023-03-31T18:22:51.362Z,100.00
2023-03-31T18:27:54.051Z,100.00
2023-03-31T18:32:57.555Z,99.96
2023-03-31T18:38:00.433Z,100.00
2023-03-31T18:43:03.168Z,100.00
2023-03-31T18:48:06.221Z,100.00
2023-03-31T18:53:09.039Z,100.00
2023-03-31T18:58:11.685Z,100.00
2023-03-31T19:03:14.436Z,100.00
2023-03-31T19:08:17.328Z,100.00
2023-03-31T19:13:20.016Z,100.00
2023-03-31T19:18:22.705Z,100.00
2023-03-31T19:23:25.536Z,100.00
2023-03-31T19:28:28.155Z,100.00
2023-03-31T19:33:31.019Z,100.00
2023-03-31T19:38:36.769Z,100.00
2023-03-31T19:43:39.396Z,100.00
2023-03-31T19:48:42.159Z,100.00
2023-03-31T19:53:45.573Z,100.00
2023-03-31T19:58:50.200Z,100.00
2023-03-31T20:03:53.836Z,100.00
2023-03-31T20:08:59.595Z,100.00
2023-03-31T20:14:03.559Z,100.00
2023-03-31T20:19:06.500Z,100.00
2023-03-31T20:24:15.910Z,100.00
2023-03-31T20:29:18.652Z,100.00
2023-03-31T20:34:22.789Z,100.00
2023-03-31T20:39:26.150Z,100.00
2023-03-31T20:44:28.762Z,100.00
2023-03-31T20:49:31.501Z,100.00
2023-03-31T20:54:34.204Z,100.00
2023-03-31T20:59:36.888Z,99.67
2023-03-31T21:04:39.426Z,99.71
2023-03-31T21:09:42.258Z,99.82
2023-03-31T21:14:45.474Z,99.50
2023-03-31T21:19:48.061Z,98.98
2023-03-31T21:24:50.781Z,99.71
2023-03-31T21:29:53.392Z,99.35
2023-03-31T21:34:56.225Z,98.90
2023-03-31T21:39:59.107Z,99.06
2023-03-31T21:45:02.006Z,99.04
2023-03-31T21:50:06.038Z,98.49
2023-03-31T21:55:09.203Z,98.72
2023-03-31T22:00:13.722Z,98.50
2023-03-31T22:05:16.609Z,98.21
2023-03-31T22:10:19.377Z,97.77
2023-03-31T22:15:22.115Z,97.65
2023-03-31T22:20:24.737Z,98.27
2023-03-31T22:25:27.449Z,98.18
2023-03-31T22:30:30.083Z,98.19
2023-03-31T22:35:32.869Z,97.88
2023-03-31T22:40:35.996Z,97.07
2023-03-31T22:45:38.907Z,97.03
2023-03-31T22:50:43.529Z,97.47
2023-03-31T22:55:53.857Z,97.68
2023-03-31T23:00:58.011Z,97.06
2023-03-31T23:06:05.725Z,97.66
2023-03-31T23:11:11.967Z,96.77
2023-03-31T23:16:23.185Z,96.97
2023-03-31T23:21:27.798Z,96.59
2023-03-31T23:26:32.321Z,95.83
2023-03-31T23:31:35.027Z,95.83
2023-03-31T23:36:37.739Z,95.98
2023-03-31T23:41:40.309Z,95.72
2023-03-31T23:46:44.393Z,95.92
2023-03-31T23:51:47.098Z,95.81
2023-03-31T23:56:49.866Z,95.17
